Terminal Aerodrome Forecast
Issued by NWS

Home | Current Version | Previous Version | Text Only | Print | Product List | Glossary On
Versions: 1 2 3 4 5 6 7 8 9 10 11 12
000
FTAK31 PANC 192337
TAFADU
TAF
PADU 192337Z 2000/2024 10010G20KT P6SM -RA BKN025 BKN040
      TEMPO 2000/2003 SCT025
     FM200600 10016G25KT 5SM -RA BR SCT015 OVC025
     FM200900 10014G23KT 3SM RA BR BKN009
     FM202200 13008KT P6SM -SHRA SCT010 BKN025=

USA.gov is the U.S. government's official web portal to all federal, state and local government web resources and services.